sensor_id;sensor_type;location;lat;lon;timestamp;P1;durP1;ratioP1;P2;durP2;ratioP2
51184;SDS011;37248;59.350;18.050;2022-08-25T10:02:34;28.48;;;2.78;;
51184;SDS011;37248;59.350;18.050;2022-08-25T10:05:00;35.20;;;3.20;;
51184;SDS011;37248;59.350;18.050;2022-08-25T10:07:47;22.30;;;2.65;;
51184;SDS011;37248;59.350;18.050;2022-08-25T10:10:21;28.38;;;3.08;;
51184;SDS011;37248;59.350;18.050;2022-08-25T10:12:46;26.60;;;3.00;;
51184;SDS011;37248;59.350;18.050;2022-08-25T10:17:47;15.93;;;1.85;;
51184;SDS011;37248;59.350;18.050;2022-08-25T10:20:24;20.33;;;2.30;;
51184;SDS011;37248;59.350;18.050;2022-08-25T10:22:50;14.25;;;1.95;;
51184;SDS011;37248;59.350;18.050;2022-08-25T10:25:34;10.05;;;2.03;;
51184;SDS011;37248;59.350;18.050;2022-08-25T10:28:09;16.77;;;3.72;;
51184;SDS011;37248;59.350;18.050;2022-08-25T10:53:49;11.15;;;2.55;;
51184;SDS011;37248;59.350;18.050;2022-08-25T11:02:17;10.98;;;2.88;;
51184;SDS011;37248;59.350;18.050;2022-08-25T11:04:47;13.43;;;2.90;;
51184;SDS011;37248;59.350;18.050;2022-08-25T11:09:44;11.13;;;2.55;;
51184;SDS011;37248;59.350;18.050;2022-08-25T11:12:12;9.88;;;2.72;;
51184;SDS011;37248;59.350;18.050;2022-08-25T11:14:40;11.65;;;2.90;;
51184;SDS011;37248;59.350;18.050;2022-08-25T11:17:53;11.95;;;2.70;;
51184;SDS011;37248;59.350;18.050;2022-08-25T11:20:03;11.38;;;3.00;;
51184;SDS011;37248;59.350;18.050;2022-08-25T11:22:39;9.25;;;2.25;;
51184;SDS011;37248;59.350;18.050;2022-08-25T11:27:32;13.03;;;2.40;;
51184;SDS011;37248;59.350;18.050;2022-08-25T11:30:03;10.65;;;2.20;;
51184;SDS011;37248;59.350;18.050;2022-08-25T11:32:28;11.80;;;2.07;;
51184;SDS011;37248;59.350;18.050;2022-08-25T11:34:59;10.03;;;1.97;;
51184;SDS011;37248;59.350;18.050;2022-08-25T11:37:25;8.90;;;2.40;;
51184;SDS011;37248;59.350;18.050;2022-08-25T11:45:14;10.98;;;2.42;;
51184;SDS011;37248;59.350;18.050;2022-08-25T11:47:49;10.03;;;2.53;;
51184;SDS011;37248;59.350;18.050;2022-08-25T11:50:35;8.10;;;2.40;;
51184;SDS011;37248;59.350;18.050;2022-08-25T11:55:49;9.98;;;2.30;;
51184;SDS011;37248;59.350;18.050;2022-08-25T12:00:52;6.50;;;1.67;;
51184;SDS011;37248;59.350;18.050;2022-08-25T12:08:46;8.05;;;2.38;;
51184;SDS011;37248;59.350;18.050;2022-08-25T12:11:12;7.78;;;2.25;;
51184;SDS011;37248;59.350;18.050;2022-08-25T12:14:07;9.80;;;2.50;;
51184;SDS011;37248;59.350;18.050;2022-08-25T12:16:37;8.20;;;1.95;;
51184;SDS011;37248;59.350;18.050;2022-08-25T12:21:46;8.35;;;1.85;;
51184;SDS011;37248;59.350;18.050;2022-08-25T12:24:12;8.33;;;1.87;;
51184;SDS011;37248;59.350;18.050;2022-08-25T12:26:44;8.85;;;2.00;;
51184;SDS011;37248;59.350;18.050;2022-08-25T12:34:29;9.20;;;1.80;;
51184;SDS011;37248;59.350;18.050;2022-08-25T12:36:55;6.05;;;1.70;;
51184;SDS011;37248;59.350;18.050;2022-08-25T12:39:22;7.20;;;1.98;;
51184;SDS011;37248;59.350;18.050;2022-08-25T12:41:57;6.32;;;1.60;;
51184;SDS011;37248;59.350;18.050;2022-08-25T12:44:34;5.80;;;1.60;;
51184;SDS011;37248;59.350;18.050;2022-08-25T12:49:44;12.60;;;2.10;;
51184;SDS011;37248;59.350;18.050;2022-08-25T12:52:11;10.60;;;2.50;;
51184;SDS011;37248;59.350;18.050;2022-08-25T12:59:49;8.90;;;1.95;;
51184;SDS011;37248;59.350;18.050;2022-08-25T13:05:04;13.00;;;2.05;;
51184;SDS011;37248;59.350;18.050;2022-08-25T13:12:35;7.88;;;1.60;;
51184;SDS011;37248;59.350;18.050;2022-08-25T13:15:02;7.50;;;1.88;;
51184;SDS011;37248;59.350;18.050;2022-08-25T13:17:29;8.55;;;1.73;;
51184;SDS011;37248;59.350;18.050;2022-08-25T13:20:11;11.93;;;2.05;;
51184;SDS011;37248;59.350;18.050;2022-08-25T13:22:36;7.65;;;1.70;;
51184;SDS011;37248;59.350;18.050;2022-08-25T13:25:02;14.63;;;1.93;;
51184;SDS011;37248;59.350;18.050;2022-08-25T13:27:29;7.85;;;1.55;;
51184;SDS011;37248;59.350;18.050;2022-08-25T13:29:57;8.02;;;1.83;;
51184;SDS011;37248;59.350;18.050;2022-08-25T13:32:27;11.35;;;2.25;;
51184;SDS011;37248;59.350;18.050;2022-08-25T13:35:05;7.07;;;1.88;;
51184;SDS011;37248;59.350;18.050;2022-08-25T13:37:30;11.57;;;1.97;;
51184;SDS011;37248;59.350;18.050;2022-08-25T13:40:07;6.50;;;1.50;;
51184;SDS011;37248;59.350;18.050;2022-08-25T13:42:34;9.07;;;1.80;;
51184;SDS011;37248;59.350;18.050;2022-08-25T13:45:00;6.82;;;1.13;;
51184;SDS011;37248;59.350;18.050;2022-08-25T13:50:14;8.25;;;1.65;;
51184;SDS011;37248;59.350;18.050;2022-08-25T13:52:39;8.77;;;1.65;;
51184;SDS011;37248;59.350;18.050;2022-08-25T13:55:05;7.33;;;1.50;;
51184;SDS011;37248;59.350;18.050;2022-08-25T13:57:30;11.27;;;1.70;;
51184;SDS011;37248;59.350;18.050;2022-08-25T14:00:04;7.70;;;1.30;;
51184;SDS011;37248;59.350;18.050;2022-08-25T14:02:47;8.53;;;1.97;;
51184;SDS011;37248;59.350;18.050;2022-08-25T14:05:14;6.38;;;1.30;;
51184;SDS011;37248;59.350;18.050;2022-08-25T14:07:51;5.63;;;1.10;;
51184;SDS011;37248;59.350;18.050;2022-08-25T14:10:31;5.00;;;1.23;;
51184;SDS011;37248;59.350;18.050;2022-08-25T14:13:27;6.25;;;1.20;;
51184;SDS011;37248;59.350;18.050;2022-08-25T14:15:52;5.22;;;1.33;;
51184;SDS011;37248;59.350;18.050;2022-08-25T14:18:23;6.57;;;1.40;;
51184;SDS011;37248;59.350;18.050;2022-08-25T14:20:50;6.97;;;1.53;;
51184;SDS011;37248;59.350;18.050;2022-08-25T14:23:17;6.25;;;1.05;;
51184;SDS011;37248;59.350;18.050;2022-08-25T14:25:43;4.28;;;1.15;;
51184;SDS011;37248;59.350;18.050;2022-08-25T14:28:10;4.83;;;0.97;;
51184;SDS011;37248;59.350;18.050;2022-08-25T14:30:38;4.75;;;1.20;;
51184;SDS011;37248;59.350;18.050;2022-08-25T14:33:04;5.90;;;1.27;;
51184;SDS011;37248;59.350;18.050;2022-08-25T14:35:30;4.15;;;1.20;;
51184;SDS011;37248;59.350;18.050;2022-08-25T14:37:55;5.50;;;1.30;;
51184;SDS011;37248;59.350;18.050;2022-08-25T14:40:21;5.30;;;1.60;;
51184;SDS011;37248;59.350;18.050;2022-08-25T14:42:46;3.03;;;1.02;;
51184;SDS011;37248;59.350;18.050;2022-08-25T14:45:16;3.75;;;1.38;;
51184;SDS011;37248;59.350;18.050;2022-08-25T14:47:41;5.53;;;1.13;;
51184;SDS011;37248;59.350;18.050;2022-08-25T14:50:08;4.60;;;1.20;;
51184;SDS011;37248;59.350;18.050;2022-08-25T14:52:34;3.67;;;0.80;;
51184;SDS011;37248;59.350;18.050;2022-08-25T14:54:59;4.47;;;1.10;;
51184;SDS011;37248;59.350;18.050;2022-08-25T14:57:24;11.40;;;1.50;;
51184;SDS011;37248;59.350;18.050;2022-08-25T14:59:50;10.57;;;2.08;;
51184;SDS011;37248;59.350;18.050;2022-08-25T15:02:16;7.93;;;1.17;;
51184;SDS011;37248;59.350;18.050;2022-08-25T15:04:44;7.90;;;1.35;;
51184;SDS011;37248;59.350;18.050;2022-08-25T15:07:13;9.95;;;1.13;;
51184;SDS011;37248;59.350;18.050;2022-08-25T15:09:57;5.72;;;1.08;;
51184;SDS011;37248;59.350;18.050;2022-08-25T15:12:22;5.03;;;1.00;;
51184;SDS011;37248;59.350;18.050;2022-08-25T15:14:48;6.20;;;1.00;;
51184;SDS011;37248;59.350;18.050;2022-08-25T15:17:13;10.73;;;1.50;;
51184;SDS011;37248;59.350;18.050;2022-08-25T15:19:39;11.23;;;1.60;;
51184;SDS011;37248;59.350;18.050;2022-08-25T15:22:05;7.73;;;1.03;;
51184;SDS011;37248;59.350;18.050;2022-08-25T15:24:30;6.13;;;1.30;;
51184;SDS011;37248;59.350;18.050;2022-08-25T15:26:57;9.43;;;1.03;;
51184;SDS011;37248;59.350;18.050;2022-08-25T15:29:23;10.57;;;1.40;;
51184;SDS011;37248;59.350;18.050;2022-08-25T15:31:50;4.50;;;0.98;;
51184;SDS011;37248;59.350;18.050;2022-08-25T15:34:17;4.28;;;1.30;;
51184;SDS011;37248;59.350;18.050;2022-08-25T15:36:43;4.75;;;0.98;;
51184;SDS011;37248;59.350;18.050;2022-08-25T15:39:08;5.43;;;1.00;;
51184;SDS011;37248;59.350;18.050;2022-08-25T15:41:34;5.87;;;0.90;;
51184;SDS011;37248;59.350;18.050;2022-08-25T15:44:01;4.90;;;1.10;;
51184;SDS011;37248;59.350;18.050;2022-08-25T15:46:27;6.00;;;1.10;;
51184;SDS011;37248;59.350;18.050;2022-08-25T15:48:54;4.67;;;0.80;;
51184;SDS011;37248;59.350;18.050;2022-08-25T15:51:21;3.30;;;0.93;;
51184;SDS011;37248;59.350;18.050;2022-08-25T15:53:46;4.53;;;0.90;;
51184;SDS011;37248;59.350;18.050;2022-08-25T15:56:11;3.53;;;1.43;;
51184;SDS011;37248;59.350;18.050;2022-08-25T15:58:43;4.68;;;0.90;;
51184;SDS011;37248;59.350;18.050;2022-08-25T16:01:12;4.60;;;0.93;;
51184;SDS011;37248;59.350;18.050;2022-08-25T16:03:37;3.10;;;0.80;;
51184;SDS011;37248;59.350;18.050;2022-08-25T16:06:03;2.63;;;0.80;;
51184;SDS011;37248;59.350;18.050;2022-08-25T16:08:29;3.40;;;0.82;;
51184;SDS011;37248;59.350;18.050;2022-08-25T16:10:54;5.90;;;0.98;;
51184;SDS011;37248;59.350;18.050;2022-08-25T16:13:19;3.57;;;0.80;;
51184;SDS011;37248;59.350;18.050;2022-08-25T16:15:47;2.80;;;0.80;;
51184;SDS011;37248;59.350;18.050;2022-08-25T16:18:13;2.50;;;0.70;;
51184;SDS011;37248;59.350;18.050;2022-08-25T16:20:41;2.92;;;0.65;;
51184;SDS011;37248;59.350;18.050;2022-08-25T16:23:06;4.15;;;0.88;;
51184;SDS011;37248;59.350;18.050;2022-08-25T16:25:32;7.63;;;0.70;;
51184;SDS011;37248;59.350;18.050;2022-08-25T16:27:57;3.57;;;0.83;;
51184;SDS011;37248;59.350;18.050;2022-08-25T16:30:22;2.93;;;0.90;;
51184;SDS011;37248;59.350;18.050;2022-08-25T16:32:48;2.80;;;0.60;;
51184;SDS011;37248;59.350;18.050;2022-08-25T16:35:13;3.13;;;0.70;;
51184;SDS011;37248;59.350;18.050;2022-08-25T16:37:39;2.43;;;0.67;;
51184;SDS011;37248;59.350;18.050;2022-08-25T16:40:04;3.07;;;0.57;;
51184;SDS011;37248;59.350;18.050;2022-08-25T16:42:30;8.87;;;1.13;;
51184;SDS011;37248;59.350;18.050;2022-08-25T16:44:55;13.77;;;1.40;;
51184;SDS011;37248;59.350;18.050;2022-08-25T16:47:20;8.37;;;1.13;;
51184;SDS011;37248;59.350;18.050;2022-08-25T16:49:46;6.77;;;1.00;;
51184;SDS011;37248;59.350;18.050;2022-08-25T16:52:12;21.45;;;1.67;;
51184;SDS011;37248;59.350;18.050;2022-08-25T16:54:56;10.90;;;1.00;;
51184;SDS011;37248;59.350;18.050;2022-08-25T16:57:36;6.05;;;0.68;;
51184;SDS011;37248;59.350;18.050;2022-08-25T17:00:05;8.02;;;1.08;;
51184;SDS011;37248;59.350;18.050;2022-08-25T17:02:32;5.75;;;0.90;;
51184;SDS011;37248;59.350;18.050;2022-08-25T17:04:57;6.70;;;1.03;;
51184;SDS011;37248;59.350;18.050;2022-08-25T17:07:23;3.97;;;0.90;;
51184;SDS011;37248;59.350;18.050;2022-08-25T17:09:48;4.65;;;0.73;;
51184;SDS011;37248;59.350;18.050;2022-08-25T17:12:13;5.70;;;1.10;;
51184;SDS011;37248;59.350;18.050;2022-08-25T17:14:39;9.80;;;3.30;;
51184;SDS011;37248;59.350;18.050;2022-08-25T17:17:04;9.15;;;2.92;;
51184;SDS011;37248;59.350;18.050;2022-08-25T17:19:29;7.30;;;2.37;;
51184;SDS011;37248;59.350;18.050;2022-08-25T17:21:55;8.20;;;2.70;;
51184;SDS011;37248;59.350;18.050;2022-08-25T17:24:22;7.75;;;2.95;;
51184;SDS011;37248;59.350;18.050;2022-08-25T17:26:48;7.30;;;2.88;;
51184;SDS011;37248;59.350;18.050;2022-08-25T17:29:14;5.90;;;2.30;;
51184;SDS011;37248;59.350;18.050;2022-08-25T17:31:39;8.40;;;2.50;;
51184;SDS011;37248;59.350;18.050;2022-08-25T17:34:05;5.97;;;2.50;;
51184;SDS011;37248;59.350;18.050;2022-08-25T17:36:31;6.10;;;2.38;;
51184;SDS011;37248;59.350;18.050;2022-08-25T17:38:56;4.97;;;2.50;;
51184;SDS011;37248;59.350;18.050;2022-08-25T17:41:22;3.83;;;1.93;;
51184;SDS011;37248;59.350;18.050;2022-08-25T17:43:47;4.47;;;1.88;;
51184;SDS011;37248;59.350;18.050;2022-08-25T17:46:13;3.33;;;1.53;;
51184;SDS011;37248;59.350;18.050;2022-08-25T17:48:38;3.63;;;1.73;;
51184;SDS011;37248;59.350;18.050;2022-08-25T17:51:04;5.10;;;1.43;;
51184;SDS011;37248;59.350;18.050;2022-08-25T17:53:31;2.15;;;1.33;;
51184;SDS011;37248;59.350;18.050;2022-08-25T17:55:57;3.00;;;1.40;;
51184;SDS011;37248;59.350;18.050;2022-08-25T17:58:24;4.47;;;1.30;;
51184;SDS011;37248;59.350;18.050;2022-08-25T18:00:49;2.27;;;1.10;;
51184;SDS011;37248;59.350;18.050;2022-08-25T18:03:14;3.33;;;1.20;;
51184;SDS011;37248;59.350;18.050;2022-08-25T18:05:39;3.10;;;1.30;;
51184;SDS011;37248;59.350;18.050;2022-08-25T18:08:05;2.70;;;0.85;;
51184;SDS011;37248;59.350;18.050;2022-08-25T18:10:31;2.00;;;1.10;;
51184;SDS011;37248;59.350;18.050;2022-08-25T18:12:57;4.07;;;1.08;;
51184;SDS011;37248;59.350;18.050;2022-08-25T18:15:22;3.47;;;0.93;;
51184;SDS011;37248;59.350;18.050;2022-08-25T18:17:48;3.13;;;1.00;;
51184;SDS011;37248;59.350;18.050;2022-08-25T18:20:14;4.50;;;1.00;;
51184;SDS011;37248;59.350;18.050;2022-08-25T18:22:40;2.60;;;0.80;;
51184;SDS011;37248;59.350;18.050;2022-08-25T18:25:07;2.42;;;0.90;;
51184;SDS011;37248;59.350;18.050;2022-08-25T18:27:33;1.70;;;0.82;;
51184;SDS011;37248;59.350;18.050;2022-08-25T18:29:58;3.97;;;0.80;;
51184;SDS011;37248;59.350;18.050;2022-08-25T18:32:24;2.83;;;0.90;;
51184;SDS011;37248;59.350;18.050;2022-08-25T18:34:50;5.20;;;1.00;;
51184;SDS011;37248;59.350;18.050;2022-08-25T18:37:15;2.60;;;0.83;;
51184;SDS011;37248;59.350;18.050;2022-08-25T18:39:59;2.33;;;0.80;;
51184;SDS011;37248;59.350;18.050;2022-08-25T18:42:43;1.77;;;0.80;;
51184;SDS011;37248;59.350;18.050;2022-08-25T18:45:08;1.73;;;0.83;;
51184;SDS011;37248;59.350;18.050;2022-08-25T18:47:34;2.37;;;0.90;;
51184;SDS011;37248;59.350;18.050;2022-08-25T18:49:59;2.47;;;0.80;;
51184;SDS011;37248;59.350;18.050;2022-08-25T18:52:26;2.25;;;1.00;;
51184;SDS011;37248;59.350;18.050;2022-08-25T18:54:52;1.95;;;1.02;;
51184;SDS011;37248;59.350;18.050;2022-08-25T18:57:17;2.83;;;0.77;;
51184;SDS011;37248;59.350;18.050;2022-08-25T18:59:43;2.10;;;0.90;;
51184;SDS011;37248;59.350;18.050;2022-08-25T19:02:09;1.20;;;0.80;;
51184;SDS011;37248;59.350;18.050;2022-08-25T19:04:34;2.77;;;1.00;;
51184;SDS011;37248;59.350;18.050;2022-08-25T19:07:00;1.87;;;0.90;;
51184;SDS011;37248;59.350;18.050;2022-08-25T19:09:25;2.33;;;0.90;;
51184;SDS011;37248;59.350;18.050;2022-08-25T19:11:51;1.70;;;1.00;;
51184;SDS011;37248;59.350;18.050;2022-08-25T19:14:16;2.23;;;0.83;;
51184;SDS011;37248;59.350;18.050;2022-08-25T19:16:42;2.57;;;0.90;;
51184;SDS011;37248;59.350;18.050;2022-08-25T19:19:08;2.50;;;1.00;;
51184;SDS011;37248;59.350;18.050;2022-08-25T19:21:35;2.70;;;1.00;;
51184;SDS011;37248;59.350;18.050;2022-08-25T19:24:02;1.90;;;0.70;;
51184;SDS011;37248;59.350;18.050;2022-08-25T19:26:28;2.30;;;1.00;;
51184;SDS011;37248;59.350;18.050;2022-08-25T19:28:53;1.80;;;0.70;;
51184;SDS011;37248;59.350;18.050;2022-08-25T19:31:20;1.47;;;0.93;;
51184;SDS011;37248;59.350;18.050;2022-08-25T19:33:46;2.80;;;1.08;;
51184;SDS011;37248;59.350;18.050;2022-08-25T19:36:12;4.55;;;1.00;;
51184;SDS011;37248;59.350;18.050;2022-08-25T19:38:38;4.15;;;0.90;;
51184;SDS011;37248;59.350;18.050;2022-08-25T19:41:04;3.77;;;1.10;;
51184;SDS011;37248;59.350;18.050;2022-08-25T19:43:30;5.90;;;1.10;;
51184;SDS011;37248;59.350;18.050;2022-08-25T19:45:55;6.40;;;1.30;;
51184;SDS011;37248;59.350;18.050;2022-08-25T19:48:20;4.23;;;1.00;;
51184;SDS011;37248;59.350;18.050;2022-08-25T19:50:45;3.70;;;1.23;;
51184;SDS011;37248;59.350;18.050;2022-08-25T19:53:11;5.50;;;1.33;;
51184;SDS011;37248;59.350;18.050;2022-08-25T19:55:36;4.87;;;1.10;;
51184;SDS011;37248;59.350;18.050;2022-08-25T19:58:02;2.13;;;0.90;;
51184;SDS011;37248;59.350;18.050;2022-08-25T20:00:29;16.15;;;1.52;;
51184;SDS011;37248;59.350;18.050;2022-08-25T20:02:55;3.75;;;1.30;;
51184;SDS011;37248;59.350;18.050;2022-08-25T20:05:21;7.43;;;1.27;;
51184;SDS011;37248;59.350;18.050;2022-08-25T20:07:48;7.65;;;1.42;;
51184;SDS011;37248;59.350;18.050;2022-08-25T20:10:13;5.10;;;1.35;;
51184;SDS011;37248;59.350;18.050;2022-08-25T20:12:39;3.03;;;1.20;;
51184;SDS011;37248;59.350;18.050;2022-08-25T20:15:05;3.37;;;1.00;;
51184;SDS011;37248;59.350;18.050;2022-08-25T20:17:30;4.28;;;1.30;;
51184;SDS011;37248;59.350;18.050;2022-08-25T20:19:57;4.73;;;1.03;;
51184;SDS011;37248;59.350;18.050;2022-08-25T20:22:24;3.20;;;1.10;;
51184;SDS011;37248;59.350;18.050;2022-08-25T20:24:49;3.38;;;1.13;;
51184;SDS011;37248;59.350;18.050;2022-08-25T20:27:23;2.42;;;0.98;;
51184;SDS011;37248;59.350;18.050;2022-08-25T20:29:48;2.05;;;0.90;;
51184;SDS011;37248;59.350;18.050;2022-08-25T20:32:14;4.13;;;0.90;;
51184;SDS011;37248;59.350;18.050;2022-08-25T20:34:40;3.03;;;0.80;;
51184;SDS011;37248;59.350;18.050;2022-08-25T20:37:05;1.67;;;0.87;;
51184;SDS011;37248;59.350;18.050;2022-08-25T20:39:31;1.97;;;0.97;;
51184;SDS011;37248;59.350;18.050;2022-08-25T20:41:56;1.53;;;0.90;;
51184;SDS011;37248;59.350;18.050;2022-08-25T20:44:21;1.57;;;0.90;;
51184;SDS011;37248;59.350;18.050;2022-08-25T20:46:46;2.20;;;0.93;;
51184;SDS011;37248;59.350;18.050;2022-08-25T20:49:12;2.03;;;0.97;;
51184;SDS011;37248;59.350;18.050;2022-08-25T20:51:38;1.70;;;1.00;;
51184;SDS011;37248;59.350;18.050;2022-08-25T20:54:03;2.42;;;0.95;;
51184;SDS011;37248;59.350;18.050;2022-08-25T20:56:28;1.77;;;1.00;;
51184;SDS011;37248;59.350;18.050;2022-08-25T20:58:56;3.08;;;1.08;;
51184;SDS011;37248;59.350;18.050;2022-08-25T21:01:22;1.67;;;0.90;;
51184;SDS011;37248;59.350;18.050;2022-08-25T21:03:48;4.03;;;1.20;;
51184;SDS011;37248;59.350;18.050;2022-08-25T21:06:14;5.78;;;1.02;;
51184;SDS011;37248;59.350;18.050;2022-08-25T21:08:40;3.53;;;1.23;;
51184;SDS011;37248;59.350;18.050;2022-08-25T21:11:12;13.73;;;1.60;;
51184;SDS011;37248;59.350;18.050;2022-08-25T21:13:37;6.78;;;1.40;;
51184;SDS011;37248;59.350;18.050;2022-08-25T21:16:03;4.38;;;1.42;;
51184;SDS011;37248;59.350;18.050;2022-08-25T21:18:29;10.88;;;1.38;;
51184;SDS011;37248;59.350;18.050;2022-08-25T21:20:54;9.90;;;1.30;;
51184;SDS011;37248;59.350;18.050;2022-08-25T21:23:19;4.83;;;1.03;;
51184;SDS011;37248;59.350;18.050;2022-08-25T21:25:44;4.23;;;1.27;;
51184;SDS011;37248;59.350;18.050;2022-08-25T21:28:10;4.83;;;1.30;;
51184;SDS011;37248;59.350;18.050;2022-08-25T21:30:39;4.47;;;1.23;;
51184;SDS011;37248;59.350;18.050;2022-08-25T21:33:05;5.78;;;1.30;;
51184;SDS011;37248;59.350;18.050;2022-08-25T21:35:30;2.70;;;1.10;;
51184;SDS011;37248;59.350;18.050;2022-08-25T21:37:55;8.00;;;1.67;;
51184;SDS011;37248;59.350;18.050;2022-08-25T21:40:21;3.20;;;1.10;;
51184;SDS011;37248;59.350;18.050;2022-08-25T21:42:46;5.53;;;1.52;;
51184;SDS011;37248;59.350;18.050;2022-08-25T21:45:12;3.95;;;1.33;;
51184;SDS011;37248;59.350;18.050;2022-08-25T21:47:37;5.23;;;1.30;;
51184;SDS011;37248;59.350;18.050;2022-08-25T21:50:06;4.57;;;1.30;;
51184;SDS011;37248;59.350;18.050;2022-08-25T21:52:32;3.73;;;1.27;;
51184;SDS011;37248;59.350;18.050;2022-08-25T21:54:57;4.87;;;1.37;;
51184;SDS011;37248;59.350;18.050;2022-08-25T21:57:22;2.77;;;1.10;;
51184;SDS011;37248;59.350;18.050;2022-08-25T21:59:48;4.30;;;1.20;;
51184;SDS011;37248;59.350;18.050;2022-08-25T22:02:13;3.57;;;1.23;;
51184;SDS011;37248;59.350;18.050;2022-08-25T22:04:39;2.92;;;1.33;;
51184;SDS011;37248;59.350;18.050;2022-08-25T22:07:06;2.33;;;1.00;;
51184;SDS011;37248;59.350;18.050;2022-08-25T22:09:32;4.75;;;1.20;;
51184;SDS011;37248;59.350;18.050;2022-08-25T22:11:57;4.97;;;1.30;;
51184;SDS011;37248;59.350;18.050;2022-08-25T22:14:23;4.65;;;1.13;;
51184;SDS011;37248;59.350;18.050;2022-08-25T22:16:49;2.75;;;1.20;;
51184;SDS011;37248;59.350;18.050;2022-08-25T22:19:14;3.03;;;0.97;;
51184;SDS011;37248;59.350;18.050;2022-08-25T22:21:40;2.63;;;1.00;;
51184;SDS011;37248;59.350;18.050;2022-08-25T22:24:07;3.07;;;1.20;;
51184;SDS011;37248;59.350;18.050;2022-08-25T22:26:33;1.67;;;0.93;;
51184;SDS011;37248;59.350;18.050;2022-08-25T22:28:58;2.57;;;1.30;;
51184;SDS011;37248;59.350;18.050;2022-08-25T22:31:24;2.15;;;1.10;;
51184;SDS011;37248;59.350;18.050;2022-08-25T22:33:51;2.87;;;1.40;;
51184;SDS011;37248;59.350;18.050;2022-08-25T22:36:18;3.47;;;1.30;;
51184;SDS011;37248;59.350;18.050;2022-08-25T22:38:43;2.50;;;1.25;;
51184;SDS011;37248;59.350;18.050;2022-08-25T22:41:09;3.13;;;1.20;;
51184;SDS011;37248;59.350;18.050;2022-08-25T22:43:34;1.98;;;0.95;;
51184;SDS011;37248;59.350;18.050;2022-08-25T22:46:00;1.90;;;1.10;;
51184;SDS011;37248;59.350;18.050;2022-08-25T22:48:26;3.53;;;1.13;;
51184;SDS011;37248;59.350;18.050;2022-08-25T22:50:51;2.95;;;1.02;;
51184;SDS011;37248;59.350;18.050;2022-08-25T22:53:17;1.87;;;1.00;;
51184;SDS011;37248;59.350;18.050;2022-08-25T22:55:42;1.93;;;0.90;;
51184;SDS011;37248;59.350;18.050;2022-08-25T22:58:08;3.03;;;1.20;;
51184;SDS011;37248;59.350;18.050;2022-08-25T23:00:33;2.35;;;1.00;;
51184;SDS011;37248;59.350;18.050;2022-08-25T23:03:02;2.65;;;1.10;;
51184;SDS011;37248;59.350;18.050;2022-08-25T23:05:27;2.60;;;1.10;;
51184;SDS011;37248;59.350;18.050;2022-08-25T23:07:53;1.70;;;0.80;;
51184;SDS011;37248;59.350;18.050;2022-08-25T23:10:18;1.73;;;1.10;;
51184;SDS011;37248;59.350;18.050;2022-08-25T23:12:44;2.47;;;1.20;;
51184;SDS011;37248;59.350;18.050;2022-08-25T23:15:10;2.40;;;0.80;;
51184;SDS011;37248;59.350;18.050;2022-08-25T23:17:36;3.83;;;1.00;;
51184;SDS011;37248;59.350;18.050;2022-08-25T23:20:02;2.08;;;1.10;;
51184;SDS011;37248;59.350;18.050;2022-08-25T23:22:48;2.20;;;1.13;;
51184;SDS011;37248;59.350;18.050;2022-08-25T23:25:13;2.93;;;0.83;;
51184;SDS011;37248;59.350;18.050;2022-08-25T23:27:41;1.67;;;0.90;;
51184;SDS011;37248;59.350;18.050;2022-08-25T23:30:06;1.70;;;0.90;;
51184;SDS011;37248;59.350;18.050;2022-08-25T23:32:31;2.00;;;1.10;;
51184;SDS011;37248;59.350;18.050;2022-08-25T23:34:57;2.43;;;0.97;;
51184;SDS011;37248;59.350;18.050;2022-08-25T23:37:22;2.27;;;0.80;;
51184;SDS011;37248;59.350;18.050;2022-08-25T23:39:48;1.53;;;0.90;;
51184;SDS011;37248;59.350;18.050;2022-08-25T23:42:13;3.27;;;1.00;;
51184;SDS011;37248;59.350;18.050;2022-08-25T23:44:38;2.30;;;0.90;;
51184;SDS011;37248;59.350;18.050;2022-08-25T23:47:03;3.07;;;1.17;;
51184;SDS011;37248;59.350;18.050;2022-08-25T23:49:30;3.45;;;1.30;;
51184;SDS011;37248;59.350;18.050;2022-08-25T23:51:56;2.17;;;1.15;;
51184;SDS011;37248;59.350;18.050;2022-08-25T23:54:22;3.93;;;1.57;;
51184;SDS011;37248;59.350;18.050;2022-08-25T23:56:47;3.90;;;1.27;;
51184;SDS011;37248;59.350;18.050;2022-08-25T23:59:13;4.03;;;1.38;;
